Time;durP1;ratioP1;P1;durP2;ratioP2;P2;SDS_P1;SDS_P2;PMS_P1;PMS_P2;Temp;Humidity;BMP_temperature;BMP_pressure;BME280_temperature;BME280_humidity;BME280_pressure;Samples;Min_cycle;Max_cycle;Signal;HPM_P1;HPM_P2
2024/02/10 00:00:21;;;;;;;5.40;3.50;;;9.70;99.90;;;;;;5045232;28;20737;-61
2024/02/10 00:02:48;;;;;;;6.23;3.37;;;9.70;99.90;;;;;;5023342;28;20191;-60
2024/02/10 00:05:15;;;;;;;7.90;3.70;;;9.70;99.90;;;;;;5051252;28;20232;-58
2024/02/10 00:07:42;;;;;;;5.93;3.43;;;9.70;99.90;;;;;;5044210;28;20186;-60
2024/02/10 00:10:10;;;;;;;7.77;3.30;;;9.70;99.90;;;;;;5043354;28;20237;-59
2024/02/10 00:12:37;;;;;;;7.97;3.20;;;9.70;99.90;;;;;;5052199;28;20240;-59
2024/02/10 00:15:05;;;;;;;8.93;3.10;;;9.70;99.90;;;;;;5051719;28;20236;-61
2024/02/10 00:17:30;;;;;;;6.60;3.50;;;9.70;99.90;;;;;;5034757;28;20202;-59
2024/02/10 00:19:56;;;;;;;6.60;3.57;;;9.70;99.90;;;;;;5051629;28;20253;-59
2024/02/10 00:22:22;;;;;;;5.10;2.80;;;9.80;99.90;;;;;;5051640;28;20194;-59
2024/02/10 00:24:48;;;;;;;5.90;3.10;;;9.80;99.90;;;;;;5045736;28;20192;-61
2024/02/10 00:27:16;;;;;;;6.40;3.07;;;9.70;99.90;;;;;;5040590;28;20202;-60
2024/02/10 00:29:45;;;;;;;4.57;2.73;;;9.70;99.90;;;;;;5041213;28;20603;-60
2024/02/10 00:32:12;;;;;;;7.07;3.33;;;9.80;99.90;;;;;;5029138;28;20192;-61
2024/02/10 00:34:41;;;;;;;10.77;3.17;;;9.80;99.90;;;;;;5035238;28;20532;-59
2024/02/10 00:37:11;;;;;;;7.20;3.27;;;9.80;99.90;;;;;;5035972;28;20673;-61
2024/02/10 00:39:36;;;;;;;6.87;3.83;;;9.80;99.90;;;;;;5006049;28;20304;-58
2024/02/10 00:42:02;;;;;;;6.13;3.30;;;9.70;99.90;;;;;;5031224;28;20274;-58
2024/02/10 00:44:28;;;;;;;5.70;3.37;;;9.70;99.90;;;;;;5019860;28;20220;-58
2024/02/10 00:46:57;;;;;;;5.47;2.73;;;9.80;99.90;;;;;;5024494;28;20183;-60
2024/02/10 00:49:24;;;;;;;7.30;2.87;;;9.60;99.90;;;;;;5035024;28;20227;-59
2024/02/10 00:51:50;;;;;;;5.00;2.53;;;9.70;99.90;;;;;;5029199;28;20203;-61
2024/02/10 00:54:22;;;;;;;6.53;2.73;;;9.70;99.90;;;;;;5037941;28;20639;-59
2024/02/10 00:56:48;;;;;;;6.40;2.50;;;9.70;99.90;;;;;;5025060;28;20195;-61
2024/02/10 00:59:15;;;;;;;4.00;2.60;;;9.80;99.90;;;;;;5031381;28;20601;-59
2024/02/10 01:01:42;;;;;;;13.27;2.57;;;9.80;99.90;;;;;;5026528;28;20565;-61
2024/02/10 01:04:08;;;;;;;6.77;2.70;;;9.80;99.90;;;;;;5044625;28;20183;-61
2024/02/10 01:06:33;;;;;;;4.17;2.33;;;9.80;99.90;;;;;;5018585;28;20190;-59
2024/02/10 01:08:59;;;;;;;4.03;2.40;;;9.80;99.90;;;;;;5035301;28;20821;-59
2024/02/10 01:11:25;;;;;;;7.33;2.47;;;9.80;99.90;;;;;;5051199;28;20290;-59
2024/02/10 01:13:50;;;;;;;4.60;2.50;;;9.80;99.90;;;;;;5030946;28;20264;-60
2024/02/10 01:16:17;;;;;;;4.33;2.37;;;9.80;99.90;;;;;;5025774;28;20710;-61
2024/02/10 01:18:50;;;;;;;3.73;2.43;;;9.80;99.90;;;;;;5055845;28;20237;-61
2024/02/10 01:21:17;;;;;;;4.90;2.40;;;9.80;99.90;;;;;;5039011;28;20207;-59
2024/02/10 01:23:46;;;;;;;5.70;3.00;;;9.80;99.90;;;;;;5041186;28;20730;-60
2024/02/10 01:26:12;;;;;;;4.57;2.93;;;9.80;99.90;;;;;;5000005;28;20204;-59
2024/02/10 01:28:44;;;;;;;4.50;2.77;;;9.80;99.90;;;;;;5040603;28;20523;-58
2024/02/10 01:31:11;;;;;;;7.80;2.53;;;9.80;99.90;;;;;;5037932;28;20222;-60
2024/02/10 01:33:37;;;;;;;4.50;2.70;;;9.80;99.90;;;;;;5035793;28;20188;-60
2024/02/10 01:36:03;;;;;;;8.63;3.00;;;9.80;99.90;;;;;;5034503;28;20183;-60
2024/02/10 01:38:29;;;;;;;5.37;2.60;;;9.80;99.90;;;;;;5047093;28;20721;-61
2024/02/10 01:40:55;;;;;;;5.40;3.20;;;9.80;99.90;;;;;;5031514;28;20230;-60
2024/02/10 01:43:20;;;;;;;4.57;2.87;;;9.70;99.90;;;;;;5036556;28;20344;-59
2024/02/10 01:45:50;;;;;;;7.47;3.63;;;9.70;99.90;;;;;;5038971;28;20649;-58
2024/02/10 01:48:19;;;;;;;9.00;2.97;;;9.70;99.90;;;;;;5036966;28;20662;-57
2024/02/10 01:50:47;;;;;;;7.53;2.73;;;9.70;99.90;;;;;;5043743;28;20306;-59
2024/02/10 01:53:13;;;;;;;5.13;2.57;;;9.70;99.90;;;;;;5034818;28;20572;-60
2024/02/10 01:55:39;;;;;;;4.77;2.60;;;9.70;99.90;;;;;;5015373;28;20537;-60
2024/02/10 01:58:06;;;;;;;4.73;2.83;;;9.70;99.90;;;;;;5031625;28;20192;-61
2024/02/10 02:00:33;;;;;;;6.43;2.87;;;9.70;99.90;;;;;;5039857;28;20210;-58
2024/02/10 02:03:02;;;;;;;6.33;3.03;;;9.80;99.90;;;;;;5025070;28;20709;-59
2024/02/10 02:05:30;;;;;;;4.87;2.60;;;9.80;99.90;;;;;;5037989;28;20639;-58
2024/02/10 02:07:56;;;;;;;6.57;3.07;;;9.70;99.90;;;;;;5032499;28;20179;-58
2024/02/10 02:10:22;;;;;;;5.70;3.10;;;9.70;99.90;;;;;;5042294;28;20595;-61
2024/02/10 02:12:49;;;;;;;6.53;3.03;;;9.70;99.90;;;;;;5042231;28;20191;-59
2024/02/10 02:15:19;;;;;;;4.30;2.50;;;9.80;99.90;;;;;;5020587;28;20192;-59
2024/02/10 02:17:45;;;;;;;3.73;2.63;;;9.70;99.90;;;;;;5053114;28;20190;-60
2024/02/10 02:20:11;;;;;;;5.37;3.33;;;9.70;99.90;;;;;;5036918;28;20675;-58
2024/02/10 02:22:37;;;;;;;6.23;3.40;;;9.70;99.90;;;;;;5037126;28;20190;-60
2024/02/10 02:25:03;;;;;;;5.50;2.77;;;9.70;99.90;;;;;;5053673;28;20183;-59
2024/02/10 02:27:28;;;;;;;2.83;1.70;;;9.80;99.90;;;;;;5049502;28;20175;-59
2024/02/10 02:29:56;;;;;;;4.17;2.50;;;9.90;99.90;;;;;;5040239;28;20230;-59
2024/02/10 02:32:23;;;;;;;8.17;2.97;;;9.70;99.90;;;;;;5034816;28;20616;-57
2024/02/10 02:34:51;;;;;;;6.00;3.30;;;9.70;99.90;;;;;;5047528;28;20677;-59
2024/02/10 02:37:17;;;;;;;6.10;3.13;;;9.70;99.90;;;;;;5051425;28;20195;-59
2024/02/10 02:39:44;;;;;;;7.47;3.43;;;9.80;99.90;;;;;;5046536;28;20589;-59
2024/02/10 02:42:10;;;;;;;8.10;3.67;;;9.70;99.90;;;;;;5036174;28;20670;-58
2024/02/10 02:44:36;;;;;;;9.37;3.50;;;9.70;99.90;;;;;;5049234;28;20194;-59
2024/02/10 02:47:04;;;;;;;9.97;3.40;;;9.70;99.90;;;;;;5048691;28;20186;-60
2024/02/10 02:49:30;;;;;;;7.20;3.80;;;9.70;99.90;;;;;;5046958;28;20211;-58
2024/02/10 02:51:56;;;;;;;5.90;3.20;;;9.70;99.90;;;;;;5036707;28;20180;-59
2024/02/10 02:54:21;;;;;;;7.97;3.30;;;9.80;99.90;;;;;;5039495;28;20248;-61
2024/02/10 02:56:51;;;;;;;5.50;3.60;;;9.70;99.90;;;;;;5021424;28;20601;-59
2024/02/10 02:59:17;;;;;;;6.83;3.10;;;9.70;99.90;;;;;;5040375;28;20203;-59
2024/02/10 03:01:42;;;;;;;5.13;3.07;;;9.70;99.90;;;;;;5052679;28;20320;-59
2024/02/10 03:04:08;;;;;;;5.43;3.17;;;9.80;99.90;;;;;;5052385;28;20215;-61
2024/02/10 03:06:34;;;;;;;5.27;3.13;;;9.80;99.90;;;;;;5029206;28;20215;-60
2024/02/10 03:09:00;;;;;;;4.33;3.00;;;9.70;99.90;;;;;;5020095;28;20591;-59
2024/02/10 03:11:26;;;;;;;6.43;3.20;;;9.70;99.90;;;;;;5026827;28;20207;-60
2024/02/10 03:13:52;;;;;;;9.13;3.33;;;9.70;99.90;;;;;;5024229;28;20185;-57
2024/02/10 03:16:19;;;;;;;7.83;2.83;;;9.70;99.90;;;;;;5031508;28;20275;-61
2024/02/10 03:18:45;;;;;;;6.13;3.40;;;9.70;99.90;;;;;;5039311;28;20188;-60
2024/02/10 03:21:17;;;;;;;6.47;3.23;;;9.60;99.90;;;;;;5033147;28;20220;-60
2024/02/10 03:23:46;;;;;;;5.80;3.27;;;9.50;99.90;;;;;;5036374;28;20187;-59
2024/02/10 03:26:11;;;;;;;11.80;4.13;;;9.60;99.90;;;;;;5034774;28;20639;-60
2024/02/10 03:28:37;;;;;;;11.50;4.60;;;9.50;99.90;;;;;;5044536;28;20183;-60
2024/02/10 03:31:04;;;;;;;8.43;4.13;;;9.60;99.90;;;;;;5044704;28;20629;-60
2024/02/10 03:33:35;;;;;;;9.00;3.90;;;9.60;99.90;;;;;;5035622;28;20191;-61
2024/02/10 03:36:02;;;;;;;7.40;3.70;;;9.60;99.90;;;;;;5028050;28;20191;-59
2024/02/10 03:38:28;;;;;;;6.80;3.90;;;9.50;99.90;;;;;;5037120;28;20558;-59
2024/02/10 03:40:54;;;;;;;9.93;3.67;;;9.50;99.90;;;;;;5033387;28;20211;-54
2024/02/10 03:43:26;;;;;;;8.13;3.70;;;9.50;99.90;;;;;;5051984;28;20211;-60
2024/02/10 03:45:52;;;;;;;8.30;3.47;;;9.60;99.90;;;;;;5043716;28;20654;-58
2024/02/10 03:48:17;;;;;;;9.53;3.37;;;9.60;99.90;;;;;;5051462;28;20187;-58
2024/02/10 03:50:43;;;;;;;7.73;3.37;;;9.60;99.90;;;;;;5038709;28;20202;-60
2024/02/10 03:53:09;;;;;;;9.50;3.73;;;9.60;99.90;;;;;;5048604;28;20233;-59
2024/02/10 03:55:34;;;;;;;7.63;3.33;;;9.50;99.90;;;;;;5020374;28;20561;-58
2024/02/10 03:58:00;;;;;;;5.80;3.53;;;9.50;99.90;;;;;;5028679;28;20645;-60
2024/02/10 04:00:26;;;;;;;6.47;3.67;;;9.50;99.90;;;;;;5039005;28;20765;-59
2024/02/10 04:02:52;;;;;;;7.93;3.70;;;9.50;99.90;;;;;;5046325;28;20186;-59
2024/02/10 04:05:18;;;;;;;6.23;3.73;;;9.60;99.90;;;;;;5032228;28;20179;-62
2024/02/10 04:07:49;;;;;;;10.40;4.23;;;9.60;99.90;;;;;;5028381;28;20185;-61
2024/02/10 04:10:18;;;;;;;8.73;3.70;;;9.60;99.90;;;;;;5038677;28;20215;-60
2024/02/10 04:12:43;;;;;;;10.27;3.97;;;9.60;99.90;;;;;;5025174;28;20185;-59
2024/02/10 04:15:11;;;;;;;8.97;4.20;;;9.60;99.90;;;;;;5044803;28;20190;-61
2024/02/10 04:17:42;;;;;;;8.93;4.43;;;9.60;99.90;;;;;;5034939;28;20263;-58
2024/02/10 04:20:09;;;;;;;6.00;3.73;;;9.60;99.90;;;;;;5036105;28;20218;-58
2024/02/10 04:22:38;;;;;;;10.47;4.40;;;9.50;99.90;;;;;;5048116;28;20264;-59
2024/02/10 04:25:10;;;;;;;9.43;3.90;;;9.50;99.90;;;;;;5039220;28;20249;-59
2024/02/10 04:27:36;;;;;;;6.30;3.90;;;9.40;99.90;;;;;;5019673;28;20188;-60
2024/02/10 04:30:06;;;;;;;7.23;3.90;;;9.40;99.90;;;;;;5034741;28;20202;-61
2024/02/10 04:32:41;;;;;;;6.47;3.60;;;9.50;99.90;;;;;;5048711;28;20272;-61
2024/02/10 04:35:07;;;;;;;8.30;3.77;;;9.50;99.90;;;;;;5023780;28;20290;-61
2024/02/10 04:37:36;;;;;;;5.73;3.73;;;9.50;99.90;;;;;;5028167;28;20668;-57
2024/02/10 04:40:02;;;;;;;7.60;4.03;;;9.50;99.90;;;;;;5035336;28;20224;-59
2024/02/10 04:42:28;;;;;;;8.10;4.33;;;9.50;99.90;;;;;;5023446;28;20279;-58
2024/02/10 04:44:58;;;;;;;6.77;4.20;;;9.60;99.90;;;;;;5033738;28;20204;-58
2024/02/10 04:47:24;;;;;;;8.37;4.13;;;9.60;99.90;;;;;;5029707;28;20247;-60
2024/02/10 04:49:51;;;;;;;8.53;4.60;;;9.60;99.90;;;;;;5017215;28;20204;-59
2024/02/10 04:52:18;;;;;;;7.37;5.03;;;9.60;99.90;;;;;;5036118;28;20230;-59
2024/02/10 04:54:44;;;;;;;8.43;4.33;;;9.60;99.90;;;;;;5021081;28;20742;-61
2024/02/10 04:57:09;;;;;;;9.17;4.87;;;9.60;99.90;;;;;;5051243;28;20241;-62
2024/02/10 04:59:35;;;;;;;10.30;5.20;;;9.70;99.90;;;;;;5034449;28;20211;-61
2024/02/10 05:02:02;;;;;;;9.63;4.77;;;9.60;99.90;;;;;;5020777;28;20189;-60
2024/02/10 05:04:27;;;;;;;7.57;4.70;;;9.60;99.90;;;;;;5041152;28;20187;-60
2024/02/10 05:06:53;;;;;;;8.73;4.97;;;9.60;99.90;;;;;;5050565;28;20171;-60
2024/02/10 05:09:19;;;;;;;9.27;4.70;;;9.50;99.90;;;;;;5031783;28;20192;-62
2024/02/10 05:11:44;;;;;;;10.70;5.20;;;9.50;99.90;;;;;;5024367;28;20179;-60
2024/02/10 05:14:11;;;;;;;11.10;5.10;;;9.50;99.90;;;;;;5031137;28;20261;-61
2024/02/10 05:16:37;;;;;;;9.93;4.77;;;9.50;99.90;;;;;;5039851;28;20192;-61
2024/02/10 05:19:03;;;;;;;12.20;5.63;;;9.40;99.90;;;;;;5034892;28;20262;-61
2024/02/10 05:21:32;;;;;;;7.33;4.93;;;9.50;99.90;;;;;;5031732;28;20192;-60
2024/02/10 05:24:05;;;;;;;8.00;4.97;;;9.50;99.90;;;;;;5016814;28;20203;-59
2024/02/10 05:26:36;;;;;;;7.70;5.30;;;9.50;99.90;;;;;;5046779;28;20176;-60
2024/02/10 05:29:06;;;;;;;10.97;5.73;;;9.60;99.90;;;;;;5039991;28;20187;-58
2024/02/10 05:31:35;;;;;;;13.17;5.30;;;9.60;99.90;;;;;;5031956;28;20240;-60
2024/02/10 05:34:02;;;;;;;11.37;5.30;;;9.60;99.90;;;;;;5030683;28;20187;-60
2024/02/10 05:36:27;;;;;;;11.87;6.20;;;9.60;99.90;;;;;;5050487;28;20655;-60
2024/02/10 05:38:53;;;;;;;9.90;5.60;;;9.60;99.90;;;;;;5028665;28;20191;-59
2024/02/10 05:41:18;;;;;;;14.07;5.93;;;9.50;99.90;;;;;;5046508;28;20219;-60
2024/02/10 05:43:45;;;;;;;10.67;6.07;;;9.50;99.90;;;;;;5027533;28;20346;-59
2024/02/10 05:46:13;;;;;;;12.97;5.57;;;9.60;99.90;;;;;;5027687;28;20199;-61
2024/02/10 05:48:39;;;;;;;11.90;6.03;;;9.60;99.90;;;;;;5042545;28;20176;-59
2024/02/10 05:51:06;;;;;;;15.70;5.97;;;9.50;99.90;;;;;;5043251;28;20200;-62
2024/02/10 05:53:31;;;;;;;11.57;6.13;;;9.60;99.90;;;;;;5028124;28;20193;-61
2024/02/10 05:55:57;;;;;;;7.87;4.63;;;9.60;99.90;;;;;;5033855;28;20192;-61
2024/02/10 05:58:23;;;;;;;7.40;4.60;;;9.60;99.90;;;;;;5033409;28;20193;-61
2024/02/10 06:00:52;;;;;;;8.43;4.30;;;9.60;99.90;;;;;;5040603;28;20208;-60
2024/02/10 06:03:18;;;;;;;7.13;4.70;;;9.60;99.90;;;;;;5031407;28;20186;-61
2024/02/10 06:05:43;;;;;;;6.53;4.07;;;9.70;99.90;;;;;;5031473;28;20184;-60
2024/02/10 06:08:12;;;;;;;10.03;5.30;;;9.70;99.90;;;;;;5030818;28;20182;-61
2024/02/10 06:10:39;;;;;;;8.03;4.67;;;9.70;99.90;;;;;;5046727;28;20201;-61
2024/02/10 06:13:04;;;;;;;8.57;4.20;;;9.70;99.90;;;;;;5014969;28;20214;-59
2024/02/10 06:15:30;;;;;;;12.03;5.37;;;9.60;99.90;;;;;;5035723;28;20651;-60
2024/02/10 06:17:57;;;;;;;12.03;5.27;;;9.60;99.90;;;;;;5030744;28;20227;-60
2024/02/10 06:20:23;;;;;;;10.73;4.57;;;9.60;99.90;;;;;;5052490;28;20253;-61
2024/02/10 06:22:58;;;;;;;8.07;4.20;;;9.60;99.90;;;;;;5009499;28;20208;-61
2024/02/10 06:25:26;;;;;;;8.20;4.00;;;9.60;99.90;;;;;;5040900;28;20175;-59
2024/02/10 06:27:54;;;;;;;14.93;8.03;;;9.60;99.90;;;;;;5028775;28;20648;-60
2024/02/10 06:30:22;;;;;;;10.50;5.50;;;9.50;99.90;;;;;;5036238;28;20212;-61
2024/02/10 06:32:48;;;;;;;8.87;4.93;;;9.50;99.90;;;;;;5037729;28;20186;-61
2024/02/10 06:35:15;;;;;;;6.83;4.10;;;9.50;99.90;;;;;;5041395;28;20191;-62
2024/02/10 06:37:47;;;;;;;6.37;3.80;;;9.50;99.90;;;;;;5046563;28;20198;-60
2024/02/10 06:40:14;;;;;;;8.17;4.40;;;9.50;99.90;;;;;;5054088;28;20215;-61
2024/02/10 06:42:50;;;;;;;8.17;4.20;;;9.50;99.90;;;;;;5033706;28;20319;-59
2024/02/10 06:45:16;;;;;;;7.10;4.00;;;9.50;99.90;;;;;;5050019;28;20716;-61
2024/02/10 06:47:45;;;;;;;8.00;4.10;;;9.50;99.90;;;;;;5020530;28;20185;-60
2024/02/10 06:50:13;;;;;;;13.57;6.73;;;9.60;99.90;;;;;;5038433;28;20199;-60
2024/02/10 06:52:39;;;;;;;14.27;5.20;;;9.60;99.90;;;;;;5034602;28;20215;-61
2024/02/10 06:55:07;;;;;;;9.43;5.27;;;9.60;99.90;;;;;;5018325;28;20276;-60
2024/02/10 06:57:34;;;;;;;8.20;4.77;;;9.60;99.90;;;;;;5032940;28;20275;-59
2024/02/10 07:00:14;;;;;;;12.80;5.70;;;9.60;99.90;;;;;;5032848;28;20199;-59
2024/02/10 07:02:46;;;;;;;8.63;4.67;;;9.70;99.90;;;;;;5034658;28;20206;-61
2024/02/10 07:05:13;;;;;;;9.07;5.40;;;9.60;99.90;;;;;;5041354;28;20183;-60
2024/02/10 07:07:41;;;;;;;7.63;4.80;;;9.60;99.90;;;;;;5037415;28;20178;-61
2024/02/10 07:10:17;;;;;;;10.33;5.20;;;9.70;99.90;;;;;;5038257;28;20216;-59
2024/02/10 07:12:45;;;;;;;8.57;5.03;;;9.70;99.90;;;;;;5022557;28;20174;-61
2024/02/10 07:15:17;;;;;;;8.93;4.83;;;9.70;99.90;;;;;;5053328;28;20236;-61
2024/02/10 07:17:43;;;;;;;9.17;5.27;;;9.60;99.90;;;;;;5031554;28;20184;-61
2024/02/10 07:20:18;;;;;;;11.63;5.57;;;9.60;99.90;;;;;;5032254;28;20208;-61
2024/02/10 07:22:49;;;;;;;10.83;5.90;;;9.60;99.90;;;;;;5024918;28;20184;-60
2024/02/10 07:25:24;;;;;;;11.10;5.50;;;9.60;99.90;;;;;;5049846;28;20493;-59
2024/02/10 07:27:51;;;;;;;11.90;6.50;;;9.70;99.90;;;;;;5050614;28;20179;-60
2024/02/10 07:30:18;;;;;;;13.50;6.47;;;9.60;99.90;;;;;;5026411;28;20259;-59
2024/02/10 07:32:44;;;;;;;10.93;5.53;;;9.70;99.90;;;;;;5050991;28;20241;-60
2024/02/10 07:35:12;;;;;;;14.00;5.97;;;9.70;99.90;;;;;;5042905;28;20195;-59
2024/02/10 07:37:38;;;;;;;10.43;5.90;;;9.80;99.90;;;;;;5022620;28;20278;-61
2024/02/10 07:40:06;;;;;;;9.10;5.00;;;9.80;99.90;;;;;;5032137;28;20739;-60
2024/02/10 07:42:32;;;;;;;10.73;5.90;;;9.80;99.90;;;;;;5023148;28;20278;-61
2024/02/10 07:44:59;;;;;;;12.07;5.93;;;9.80;99.90;;;;;;5047890;28;20565;-60
2024/02/10 07:47:25;;;;;;;10.90;6.23;;;9.80;99.90;;;;;;5049886;28;20670;-60
2024/02/10 07:49:52;;;;;;;9.67;4.77;;;9.90;99.90;;;;;;5045712;28;20217;-59
2024/02/10 07:52:21;;;;;;;9.37;5.80;;;9.90;99.90;;;;;;5033716;28;20575;-61
2024/02/10 07:54:50;;;;;;;8.50;5.10;;;9.90;99.90;;;;;;5004981;28;20252;-60
2024/02/10 07:57:22;;;;;;;9.73;5.20;;;10.00;99.90;;;;;;5034561;28;20268;-61
2024/02/10 07:59:50;;;;;;;12.57;5.50;;;10.00;99.90;;;;;;5032535;28;20212;-59
2024/02/10 08:02:16;;;;;;;7.73;5.07;;;10.10;99.90;;;;;;5048273;28;20725;-61
2024/02/10 08:04:43;;;;;;;10.67;6.63;;;10.10;99.90;;;;;;5040577;28;20191;-61
2024/02/10 08:07:08;;;;;;;12.43;6.83;;;10.10;99.90;;;;;;5031902;28;20188;-59
2024/02/10 08:09:34;;;;;;;13.57;7.13;;;10.10;99.90;;;;;;5045780;28;20208;-61
2024/02/10 08:12:00;;;;;;;14.93;7.87;;;10.10;99.90;;;;;;5042500;28;20195;-60
2024/02/10 08:14:25;;;;;;;12.70;8.50;;;10.20;99.90;;;;;;5039842;28;20642;-59
2024/02/10 08:16:51;;;;;;;12.77;7.97;;;10.30;99.90;;;;;;4999959;28;20188;-61
2024/02/10 08:19:18;;;;;;;19.67;8.10;;;10.20;99.90;;;;;;5039889;28;20306;-60
2024/02/10 08:21:44;;;;;;;12.83;7.33;;;10.20;99.90;;;;;;5037796;28;20183;-60
2024/02/10 08:24:11;;;;;;;12.33;7.40;;;10.30;99.90;;;;;;5001168;28;20192;-61
2024/02/10 08:26:37;;;;;;;12.53;7.17;;;10.40;99.90;;;;;;5018911;28;20203;-59
2024/02/10 08:29:03;;;;;;;13.40;7.40;;;10.40;99.90;;;;;;5052379;28;20194;-60
2024/02/10 08:31:34;;;;;;;11.00;6.27;;;10.50;99.90;;;;;;5033593;28;20592;-61
2024/02/10 08:34:00;;;;;;;10.43;5.67;;;10.60;99.90;;;;;;5035729;28;20191;-60
2024/02/10 08:36:29;;;;;;;12.63;6.10;;;10.70;99.90;;;;;;5029691;28;20186;-60
2024/02/10 08:38:58;;;;;;;12.80;7.10;;;10.80;99.90;;;;;;5019017;28;20843;-58
2024/02/10 08:41:24;;;;;;;10.93;6.07;;;10.70;99.90;;;;;;5015668;28;20219;-59
2024/02/10 08:43:50;;;;;;;10.23;6.07;;;10.70;99.90;;;;;;5026399;28;20196;-61
2024/02/10 08:46:15;;;;;;;9.43;5.70;;;10.70;99.90;;;;;;5027214;28;20237;-60
2024/02/10 08:48:44;;;;;;;9.37;5.67;;;10.80;99.90;;;;;;5033170;28;20179;-62
2024/02/10 08:51:12;;;;;;;8.47;5.10;;;10.80;99.90;;;;;;5022837;28;20291;-61
2024/02/10 08:53:41;;;;;;;10.67;5.73;;;10.90;99.90;;;;;;5040682;28;20186;-59
2024/02/10 08:56:13;;;;;;;10.90;6.37;;;10.90;99.90;;;;;;5048183;28;20191;-59
2024/02/10 08:58:44;;;;;;;10.43;4.90;;;10.90;99.90;;;;;;5029207;28;20179;-59
2024/02/10 09:01:15;;;;;;;7.10;4.63;;;11.00;99.90;;;;;;5036732;28;20273;-60
2024/02/10 09:03:50;;;;;;;8.77;5.23;;;11.00;99.90;;;;;;5017041;28;20179;-63
2024/02/10 09:06:21;;;;;;;12.73;5.13;;;10.90;99.90;;;;;;5032542;28;20178;-62
2024/02/10 09:08:53;;;;;;;9.87;5.70;;;10.90;99.90;;;;;;5041430;28;20187;-63
2024/02/10 09:11:19;;;;;;;8.20;5.40;;;10.90;99.90;;;;;;5023618;28;20581;-63
2024/02/10 09:13:48;;;;;;;10.93;5.30;;;10.90;99.90;;;;;;5016774;28;20277;-60
2024/02/10 09:16:14;;;;;;;8.73;5.57;;;11.00;99.90;;;;;;5033426;28;20614;-61
2024/02/10 09:18:44;;;;;;;12.97;5.17;;;11.00;99.90;;;;;;5025149;28;20187;-62
2024/02/10 09:21:17;;;;;;;9.67;5.00;;;11.00;99.90;;;;;;5048983;28;20210;-62
2024/02/10 09:23:43;;;;;;;8.70;4.80;;;11.00;99.90;;;;;;5017488;28;20187;-62
2024/02/10 09:26:15;;;;;;;10.50;4.80;;;11.00;99.90;;;;;;5016641;28;20181;-62
2024/02/10 09:28:42;;;;;;;7.80;4.27;;;10.90;99.90;;;;;;5009333;28;20204;-62
2024/02/10 09:31:13;;;;;;;5.93;3.70;;;10.80;99.90;;;;;;5032589;28;20234;-62
2024/02/10 09:33:39;;;;;;;6.03;3.73;;;10.80;99.90;;;;;;5041291;28;20628;-62
2024/02/10 09:36:08;;;;;;;7.10;4.20;;;10.80;99.90;;;;;;5027043;28;20269;-62
2024/02/10 09:38:37;;;;;;;8.90;4.60;;;10.90;99.90;;;;;;5046370;28;20192;-60
2024/02/10 09:41:04;;;;;;;6.37;4.20;;;10.90;99.90;;;;;;5043097;28;20225;-62
2024/02/10 09:43:36;;;;;;;7.63;4.57;;;11.00;99.90;;;;;;5035721;28;20695;-62
2024/02/10 09:46:08;;;;;;;7.80;4.43;;;11.00;99.90;;;;;;5051781;28;20179;-62
2024/02/10 09:48:54;;;;;;;6.37;4.10;;;10.90;99.90;;;;;;5032903;28;20206;-62
2024/02/10 09:51:20;;;;;;;8.40;4.10;;;11.10;99.90;;;;;;5050020;28;20234;-62
2024/02/10 09:53:47;;;;;;;5.80;3.80;;;11.00;99.90;;;;;;5039683;28;20218;-62
2024/02/10 09:56:14;;;;;;;6.70;3.87;;;11.00;99.90;;;;;;5014392;28;20184;-61
2024/02/10 09:58:46;;;;;;;5.57;3.83;;;11.20;99.90;;;;;;5028536;28;20191;-60
2024/02/10 10:01:13;;;;;;;6.53;4.20;;;11.20;99.90;;;;;;5035990;28;20220;-62
2024/02/10 10:03:39;;;;;;;6.17;3.83;;;11.20;99.90;;;;;;4998569;28;20229;-62
2024/02/10 10:06:09;;;;;;;7.70;4.13;;;11.20;99.90;;;;;;5040286;28;20200;-60
2024/02/10 10:08:39;;;;;;;7.50;4.43;;;11.30;99.90;;;;;;5024158;28;20279;-61
2024/02/10 10:11:11;;;;;;;7.40;4.10;;;11.30;99.90;;;;;;5039878;28;20678;-62
2024/02/10 10:13:38;;;;;;;9.07;4.33;;;11.30;99.90;;;;;;5024185;28;20187;-62
2024/02/10 10:16:07;;;;;;;8.43;4.67;;;11.30;99.90;;;;;;5039333;28;20191;-62
2024/02/10 10:18:35;;;;;;;10.43;5.10;;;11.30;99.90;;;;;;5045444;28;20222;-61
2024/02/10 10:21:01;;;;;;;9.80;5.90;;;11.30;99.90;;;;;;5025294;28;20222;-62
2024/02/10 10:23:31;;;;;;;10.70;5.77;;;11.30;99.90;;;;;;5031524;28;20250;-62
2024/02/10 10:25:57;;;;;;;11.20;5.80;;;11.20;99.90;;;;;;5040324;28;20619;-62
2024/02/10 10:28:22;;;;;;;9.27;5.37;;;11.20;99.90;;;;;;5017253;28;20195;-62
2024/02/10 10:30:48;;;;;;;10.90;5.13;;;11.20;99.90;;;;;;5036771;28;20203;-63
2024/02/10 10:33:18;;;;;;;10.77;6.23;;;11.20;99.90;;;;;;5026628;28;20293;-62
2024/02/10 10:35:47;;;;;;;14.07;7.53;;;11.30;99.90;;;;;;5031458;28;20186;-63
2024/02/10 10:38:15;;;;;;;13.47;7.70;;;11.40;99.90;;;;;;5015149;28;20196;-61
2024/02/10 10:40:43;;;;;;;14.87;8.10;;;11.50;99.90;;;;;;5051038;28;20218;-62
2024/02/10 10:43:12;;;;;;;12.93;7.47;;;11.70;99.90;;;;;;5033479;28;20203;-62
2024/02/10 10:45:38;;;;;;;13.80;7.53;;;11.70;99.90;;;;;;5041566;28;20204;-63
2024/02/10 10:48:05;;;;;;;12.30;7.00;;;11.60;99.90;;;;;;5035274;28;20345;-63
2024/02/10 10:50:32;;;;;;;14.20;7.80;;;11.60;99.90;;;;;;5040276;28;20227;-63
2024/02/10 10:53:11;;;;;;;13.53;7.97;;;11.80;99.90;;;;;;5023560;28;20211;-61
2024/02/10 10:55:43;;;;;;;11.33;6.70;;;12.00;99.90;;;;;;5042580;28;20179;-62
2024/02/10 10:58:13;;;;;;;11.97;6.80;;;12.00;99.90;;;;;;5041932;28;20202;-62
2024/02/10 11:00:42;;;;;;;9.90;6.30;;;12.00;99.90;;;;;;5011186;28;20216;-62
2024/02/10 11:03:08;;;;;;;24.20;10.27;;;12.10;99.90;;;;;;5019633;28;20188;-62
2024/02/10 11:05:40;;;;;;;16.33;8.07;;;12.30;99.90;;;;;;5030326;28;20210;-62
2024/02/10 11:08:07;;;;;;;11.10;7.00;;;12.50;99.90;;;;;;5006154;28;20652;-62
2024/02/10 11:10:40;;;;;;;9.73;6.03;;;12.50;99.90;;;;;;5011011;28;20210;-62
2024/02/10 11:13:07;;;;;;;9.87;5.60;;;12.60;99.90;;;;;;5011267;28;20196;-63
2024/02/10 11:15:40;;;;;;;10.73;5.30;;;13.00;99.90;;;;;;5013565;28;20211;-62
2024/02/10 11:18:17;;;;;;;7.90;4.87;;;13.10;99.90;;;;;;5031627;28;20223;-62
2024/02/10 11:20:43;;;;;;;9.63;5.37;;;13.30;99.90;;;;;;5015115;28;20281;-62
2024/02/10 11:23:21;;;;;;;9.03;4.50;;;13.50;99.90;;;;;;5046496;28;20183;-62
2024/02/10 11:25:52;;;;;;;8.40;4.40;;;13.50;99.90;;;;;;5024793;28;20243;-62
2024/02/10 11:28:20;;;;;;;9.00;4.80;;;13.60;99.90;;;;;;5026502;28;20212;-62
2024/02/10 11:30:46;;;;;;;6.07;4.17;;;13.40;99.90;;;;;;5019753;28;20635;-62
2024/02/10 11:33:12;;;;;;;5.70;4.17;;;13.20;99.90;;;;;;5041272;28;20285;-62
2024/02/10 11:35:37;;;;;;;6.40;3.97;;;13.20;99.90;;;;;;5035373;28;20687;-62
2024/02/10 11:38:05;;;;;;;7.23;4.40;;;13.10;99.90;;;;;;5023782;28;20536;-62
2024/02/10 11:40:32;;;;;;;6.43;4.30;;;13.10;99.90;;;;;;5033439;28;20763;-61
2024/02/10 11:42:58;;;;;;;6.40;4.33;;;13.20;99.90;;;;;;5027416;28;20207;-62
2024/02/10 11:45:26;;;;;;;8.90;4.50;;;13.10;99.90;;;;;;5047259;28;20549;-61
2024/02/10 11:47:55;;;;;;;8.93;4.93;;;13.20;99.90;;;;;;5039432;28;20231;-61
2024/02/10 11:50:20;;;;;;;7.00;4.47;;;13.20;99.90;;;;;;5043844;28;20797;-62
2024/02/10 11:52:47;;;;;;;9.30;4.77;;;13.30;99.90;;;;;;5033722;28;20283;-62
2024/02/10 11:55:12;;;;;;;7.50;4.43;;;13.30;99.90;;;;;;5018142;28;20663;-60
2024/02/10 11:57:40;;;;;;;6.53;4.13;;;13.20;99.90;;;;;;5037217;28;20198;-62
2024/02/10 12:00:07;;;;;;;8.73;4.43;;;13.20;99.90;;;;;;5035552;28;20218;-61
2024/02/10 12:02:32;;;;;;;7.63;4.03;;;13.40;99.90;;;;;;5033050;28;20245;-62
2024/02/10 12:04:59;;;;;;;8.70;4.33;;;13.30;99.90;;;;;;5049954;28;20179;-61
2024/02/10 12:07:28;;;;;;;7.00;4.43;;;13.50;99.90;;;;;;5024336;28;20180;-61
2024/02/10 12:09:55;;;;;;;7.13;3.90;;;13.60;99.90;;;;;;5022044;28;20207;-61
2024/02/10 12:12:22;;;;;;;6.97;3.70;;;13.70;99.90;;;;;;5019327;28;20197;-59
2024/02/10 12:14:49;;;;;;;7.27;3.83;;;13.70;99.90;;;;;;5025792;28;20261;-60
2024/02/10 12:17:19;;;;;;;8.07;4.30;;;13.70;99.90;;;;;;5040094;28;20642;-60
2024/02/10 12:19:46;;;;;;;9.10;4.90;;;13.80;99.90;;;;;;5026064;28;20214;-60
2024/02/10 12:22:11;;;;;;;6.40;3.97;;;14.00;99.90;;;;;;5041616;28;20197;-60
2024/02/10 12:24:43;;;;;;;5.57;3.73;;;14.10;99.90;;;;;;5045838;28;20180;-60
2024/02/10 12:27:08;;;;;;;7.67;3.93;;;14.10;99.90;;;;;;5035020;28;20655;-58
2024/02/10 12:29:37;;;;;;;5.43;3.23;;;14.20;99.90;;;;;;5048975;28;20229;-58
2024/02/10 12:32:03;;;;;;;5.07;2.70;;;14.30;99.90;;;;;;5040697;28;20232;-59
2024/02/10 12:34:29;;;;;;;16.73;5.50;;;14.00;99.90;;;;;;5024397;28;20192;-59
2024/02/10 12:36:54;;;;;;;14.30;6.50;;;13.70;99.90;;;;;;5040229;28;20253;-58
2024/02/10 12:39:20;;;;;;;4.83;2.57;;;13.70;99.90;;;;;;5040136;28;20191;-58
2024/02/10 12:41:46;;;;;;;6.80;2.40;;;13.50;99.90;;;;;;5041384;28;20214;-60
2024/02/10 12:44:11;;;;;;;4.77;2.50;;;13.40;99.90;;;;;;5040589;28;20202;-61
2024/02/10 12:46:38;;;;;;;2.90;1.70;;;13.40;99.90;;;;;;5039093;28;20228;-61
2024/02/10 12:49:04;;;;;;;3.57;1.40;;;13.20;99.90;;;;;;5018436;28;20176;-60
2024/02/10 12:51:33;;;;;;;1.97;1.47;;;13.30;99.90;;;;;;5025307;28;20298;-60